Skip Navigation LinksHome page > Weather > Current weather Skip Navigation Links

Current Weather

Miramar Mcas/Mitscher Field, San Diego

For information only: do not use for flight planning or navigation.
Latest weather
Observation time Wednesday, December 8, 2021 7:55 AM PST
Local time Wednesday, December 8, 2021 8:34 AM PST
Flight conditions Visual Meteorological Conditions
Winds
Wind speed calm
Visibility 10 mi.
Sky condition
Ceiling 8,000 ft. broken clouds
Cloud layer scattered clouds 3,600 ft.
Cloud layer broken clouds 8,000 ft.
Temperature 55°F
Dewpoint 52°F
Altimeter 30.06 in.Hg
Derived measurements
Relative humidity 89%
Density altitude 243 ft.
Sea-level pressure 30.05 in.Hg
Remarks
System requires maintenance.
Automated weather observing station with precipitation discriminator.
METAR KNKX 081555Z 00000KT 10SM SCT036 BKN080 13/11 A3006 RMK AO2 SLP175 T01280111 $

Settings

Location code

InnerDrive.Weather 4.0.6770.0 Release CLR 4.0.30319.42000
Copyright ©2018 Inner Drive Technology. All rights reserved. Portions Copyright ©1986-2018 David Braverman.

Find weather

Site navigation


Skip Navigation Links

Place info

Page info

PayPal - The safer, easier way to pay online!

Return home.

Copyright ©2021 Inner Drive Technology. Purveyors of fine, hand-crafted computer software. Page printed 2021-12-08T16:34:45 UTC.